Decoded Metar for RCNN (TAINAN in TAIWAN) (IATA:TNN) | Meteo·Mobile Aviation Weather
aviador You're here:

RCNN Decoded Metar

TAINAN in TAIWAN
Report Time2018-08-17 14:00:00
UTC Time2018-08-17 14:38:18
Flight Rules vfr VFR
Wind220° at 04 kt
W.Decomp.*RWY 18: 2.9 kt HW 2.7 kt RCW
W.Rank220° ranks 20
Current wind is below 220° avg. (6.9)
Visibility9000 m
Phenomena:Vicinity showers
Clouds:Few 012 Hf
Broken 030 Hf
Broken 060 Hf
Expected CloudBase > 800 ft AGL from Temp-Dew spread
Ceiling3,000 ft
Temp26°C (ISA +11)
Dew Point24°C (89% RH)
QNH1002 hPa
Density Alt2,110 ft
Elevation62 ft
Report Wrong Elevation
Raw Report
RCNN 171400Z 22004KT 9000 VCSH FEW012 BKN030 BKN060 26/24 Q1002
RMK A2961 VCSH SW=

Extra information for RCNN:More info

Metar Taf Metar & Taf Last 4 Metars F.Rules Stats Wind Profile Meteogram Temp Stats Airport Information Weather charts Add Link Nearby VenuesMetar ALERT Operation Metar Decoded Social comments